Time;durP1;ratioP1;P1;durP2;ratioP2;P2;SDS_P1;SDS_P2;PMS_P1;PMS_P2;Temp;Humidity;BMP_temperature;BMP_pressure;BME280_temperature;BME280_humidity;BME280_pressure;Samples;Min_cycle;Max_cycle;Signal;HPM_P1;HPM_P2
2022/03/06 00:01:55;;;;;;;22.30;16.37;;;4.10;83.20;;;;;;5044045;28;20441;-54
2022/03/06 00:04:20;;;;;;;21.00;15.47;;;3.10;82.00;;;;;;5043126;28;20171;-53
2022/03/06 00:06:46;;;;;;;21.53;15.93;;;3.00;82.20;;;;;;5044806;28;20200;-53
2022/03/06 00:09:12;;;;;;;18.73;13.90;;;3.00;82.20;;;;;;5043848;28;20180;-48
2022/03/06 00:11:38;;;;;;;22.50;15.70;;;3.00;82.50;;;;;;5045997;28;20167;-51
2022/03/06 00:14:03;;;;;;;21.77;16.13;;;3.00;82.40;;;;;;5046910;28;20421;-51
2022/03/06 00:16:29;;;;;;;22.83;16.27;;;3.00;82.60;;;;;;5043745;28;20213;-52
2022/03/06 00:18:55;;;;;;;19.73;14.33;;;2.90;82.60;;;;;;5044153;28;20205;-50
2022/03/06 00:21:21;;;;;;;21.90;15.77;;;2.80;82.70;;;;;;5042925;28;20280;-52
2022/03/06 00:23:46;;;;;;;20.70;15.47;;;2.80;83.20;;;;;;5044620;28;20202;-50
2022/03/06 00:26:12;;;;;;;20.37;14.80;;;2.70;83.40;;;;;;5043747;28;20271;-51
2022/03/06 00:28:37;;;;;;;18.73;13.83;;;2.70;83.40;;;;;;5044097;28;20172;-52
2022/03/06 00:31:03;;;;;;;23.77;17.30;;;2.70;83.70;;;;;;5045516;28;20648;-47
2022/03/06 00:33:29;;;;;;;19.77;15.13;;;2.60;83.80;;;;;;5043628;28;20168;-52
2022/03/06 00:35:54;;;;;;;21.47;16.03;;;2.60;84.20;;;;;;5043920;28;20273;-53
2022/03/06 00:38:20;;;;;;;23.00;15.47;;;2.50;84.30;;;;;;5044208;28;20714;-50
2022/03/06 00:40:45;;;;;;;20.97;13.93;;;2.60;84.40;;;;;;5042481;28;20695;-51
2022/03/06 00:43:11;;;;;;;21.97;15.57;;;2.60;84.40;;;;;;5043765;28;20171;-51
2022/03/06 00:45:37;;;;;;;23.63;16.17;;;2.50;84.30;;;;;;5043347;28;20219;-53
2022/03/06 00:48:03;;;;;;;21.77;15.10;;;2.50;84.40;;;;;;5042188;28;20255;-50
2022/03/06 00:50:28;;;;;;;21.30;15.40;;;2.50;84.50;;;;;;5043936;28;20175;-51
2022/03/06 00:52:56;;;;;;;20.67;15.43;;;2.50;84.50;;;;;;5043008;28;20191;-51
2022/03/06 00:55:22;;;;;;;17.27;13.07;;;2.50;84.50;;;;;;5041145;28;20350;-51
2022/03/06 00:57:47;;;;;;;19.50;13.77;;;2.50;84.30;;;;;;5043565;28;20838;-54
2022/03/06 01:00:13;;;;;;;21.23;14.13;;;2.50;84.20;;;;;;5043067;28;20789;-52
2022/03/06 01:02:39;;;;;;;19.23;14.30;;;2.50;84.20;;;;;;5042428;28;20179;-52
2022/03/06 01:05:05;;;;;;;20.73;14.70;;;2.50;84.20;;;;;;5043789;28;20430;-51
2022/03/06 01:07:30;;;;;;;19.13;13.87;;;2.50;84.50;;;;;;5041900;28;20171;-50
2022/03/06 01:09:56;;;;;;;19.03;14.03;;;2.50;84.50;;;;;;5042843;28;20175;-53
2022/03/06 01:12:22;;;;;;;19.37;14.53;;;2.50;84.20;;;;;;5043695;28;20187;-50
2022/03/06 01:14:48;;;;;;;20.60;15.10;;;2.50;84.10;;;;;;5043024;28;20203;-51
2022/03/06 01:17:14;;;;;;;22.27;15.17;;;2.50;84.70;;;;;;5042402;28;20206;-52
2022/03/06 01:19:40;;;;;;;18.97;14.87;;;2.50;84.70;;;;;;5043205;28;20411;-49
2022/03/06 01:22:06;;;;;;;21.87;15.63;;;2.50;85.10;;;;;;5041422;28;20171;-50
2022/03/06 01:24:31;;;;;;;20.23;14.83;;;2.50;84.80;;;;;;5048082;28;20286;-50
2022/03/06 01:26:57;;;;;;;20.27;14.90;;;2.50;84.50;;;;;;5043751;28;20168;-49
2022/03/06 01:29:22;;;;;;;21.87;14.77;;;2.50;84.70;;;;;;5041379;28;20183;-53
2022/03/06 01:31:49;;;;;;;22.33;15.60;;;2.50;84.60;;;;;;5043091;28;20229;-52
2022/03/06 01:34:15;;;;;;;22.50;14.67;;;2.50;84.60;;;;;;5024617;28;20188;-49
2022/03/06 01:36:40;;;;;;;19.60;14.83;;;2.50;84.60;;;;;;5039815;28;20551;-52
2022/03/06 01:39:06;;;;;;;20.60;14.30;;;2.50;84.50;;;;;;5043150;28;20171;-52
2022/03/06 01:41:36;;;;;;;22.03;15.37;;;2.50;84.80;;;;;;5041881;28;20196;-51
2022/03/06 01:44:03;;;;;;;20.93;15.27;;;2.50;84.80;;;;;;5041538;28;20194;-51
2022/03/06 01:47:18;;;;;;;19.00;13.93;;;2.50;85.10;;;;;;5040822;28;20485;-53
2022/03/06 01:49:44;;;;;;;19.47;14.30;;;2.50;84.90;;;;;;5043012;28;20440;-52
2022/03/06 01:52:09;;;;;;;20.13;14.13;;;2.50;84.60;;;;;;5041339;28;20477;-49
2022/03/06 01:54:35;;;;;;;18.77;13.67;;;2.50;85.90;;;;;;5041935;28;20654;-51
2022/03/06 01:57:01;;;;;;;19.67;14.07;;;2.40;85.20;;;;;;5042451;28;20565;-47
2022/03/06 01:59:26;;;;;;;18.13;12.97;;;2.40;85.00;;;;;;5040651;28;20541;-49
2022/03/06 02:01:52;;;;;;;20.00;14.37;;;2.40;85.10;;;;;;5042191;28;20206;-53
2022/03/06 02:04:17;;;;;;;19.20;13.33;;;2.40;85.50;;;;;;5042156;28;20271;-51
2022/03/06 02:06:43;;;;;;;19.50;13.57;;;2.40;86.30;;;;;;5039060;28;20167;-52
2022/03/06 02:09:08;;;;;;;19.20;13.83;;;2.40;85.70;;;;;;5042511;28;20229;-51
2022/03/06 02:11:34;;;;;;;18.07;13.23;;;2.30;86.10;;;;;;5041657;28;20175;-52
2022/03/06 02:14:02;;;;;;;18.90;13.57;;;2.30;85.80;;;;;;5040739;28;20175;-53
2022/03/06 02:16:30;;;;;;;20.00;13.77;;;2.30;86.00;;;;;;5040502;28;20469;-49
2022/03/06 02:18:56;;;;;;;16.83;13.17;;;2.20;86.10;;;;;;5041278;28;20414;-54
2022/03/06 02:21:21;;;;;;;19.50;13.67;;;2.20;86.20;;;;;;5042518;28;20417;-53
2022/03/06 02:23:47;;;;;;;18.07;13.43;;;2.30;86.00;;;;;;5040514;28;20176;-53
2022/03/06 02:26:13;;;;;;;18.77;13.17;;;2.30;85.90;;;;;;5041442;28;20660;-52
2022/03/06 02:28:39;;;;;;;21.17;13.60;;;2.20;85.80;;;;;;5041814;28;20183;-56
2022/03/06 02:31:05;;;;;;;18.03;13.43;;;2.30;85.90;;;;;;5040215;28;20179;-50
2022/03/06 02:33:30;;;;;;;19.73;12.53;;;2.30;85.70;;;;;;5042091;28;20182;-49
2022/03/06 02:35:56;;;;;;;17.77;12.73;;;2.20;85.70;;;;;;5041066;28;20191;-51
2022/03/06 02:38:21;;;;;;;18.00;13.40;;;2.20;85.80;;;;;;5040464;28;20175;-50
2022/03/06 02:40:47;;;;;;;19.10;13.87;;;2.20;85.70;;;;;;5042281;28;20175;-53
2022/03/06 02:43:15;;;;;;;17.40;12.93;;;2.20;85.70;;;;;;5040916;28;20172;-51
2022/03/06 02:45:41;;;;;;;19.53;13.23;;;2.20;85.70;;;;;;5040132;28;20229;-53
2022/03/06 02:48:07;;;;;;;17.70;13.13;;;2.20;85.60;;;;;;5042199;28;20433;-54
2022/03/06 02:50:35;;;;;;;19.67;13.87;;;2.20;85.60;;;;;;5041012;28;20501;-51
2022/03/06 02:53:03;;;;;;;18.43;13.80;;;2.20;85.80;;;;;;5040282;28;20425;-55
2022/03/06 02:55:29;;;;;;;18.27;13.00;;;2.10;85.70;;;;;;5041764;28;20448;-55
2022/03/06 02:57:55;;;;;;;16.77;12.67;;;2.10;85.80;;;;;;5040728;28;20454;-50
2022/03/06 03:00:23;;;;;;;17.93;13.47;;;2.10;85.80;;;;;;5040363;28;20186;-53
2022/03/06 03:02:49;;;;;;;18.13;12.47;;;2.00;86.10;;;;;;5040357;28;20172;-49
2022/03/06 03:05:17;;;;;;;19.13;13.87;;;2.00;86.20;;;;;;5040953;28;20969;-54
2022/03/06 03:07:45;;;;;;;17.83;12.50;;;2.00;86.80;;;;;;5041950;28;20422;-54
2022/03/06 03:10:13;;;;;;;17.53;13.80;;;2.00;86.30;;;;;;5050894;28;20473;-51
2022/03/06 03:12:39;;;;;;;18.60;13.33;;;2.00;86.30;;;;;;5052470;28;20494;-51
2022/03/06 03:15:06;;;;;;;20.03;13.10;;;2.00;86.30;;;;;;5051474;28;20460;-53
2022/03/06 03:17:32;;;;;;;17.60;13.30;;;2.00;86.30;;;;;;5052962;28;20471;-55
2022/03/06 03:19:58;;;;;;;19.27;13.33;;;1.90;86.10;;;;;;5055208;28;21149;-55
2022/03/06 03:22:23;;;;;;;17.97;13.10;;;1.90;86.10;;;;;;5054432;28;20594;-53
2022/03/06 03:24:49;;;;;;;18.17;13.03;;;1.90;86.20;;;;;;5054994;28;20606;-52
2022/03/06 03:27:15;;;;;;;18.03;12.47;;;1.90;86.00;;;;;;5054537;28;20662;-54
2022/03/06 03:29:40;;;;;;;20.47;13.80;;;1.90;85.80;;;;;;5055121;28;20671;-51
2022/03/06 03:32:07;;;;;;;18.13;12.93;;;1.90;85.70;;;;;;5055226;28;20179;-53
2022/03/06 03:34:32;;;;;;;19.97;14.27;;;1.90;85.80;;;;;;5054859;28;20614;-52
2022/03/06 03:36:58;;;;;;;17.40;12.93;;;1.80;85.60;;;;;;5054396;28;20453;-53
2022/03/06 03:39:24;;;;;;;15.97;11.97;;;1.90;85.50;;;;;;5054836;28;20175;-52
2022/03/06 03:41:49;;;;;;;18.27;12.97;;;1.80;85.50;;;;;;5054751;28;20209;-53
2022/03/06 03:44:15;;;;;;;17.67;12.80;;;1.80;85.60;;;;;;5054946;28;20175;-52
2022/03/06 03:46:41;;;;;;;18.13;13.30;;;1.80;85.80;;;;;;5054404;28;20181;-54
2022/03/06 03:49:06;;;;;;;17.33;12.73;;;1.80;86.10;;;;;;5054783;28;20262;-55
2022/03/06 03:51:32;;;;;;;18.13;13.37;;;1.80;86.30;;;;;;5054793;28;20179;-51
2022/03/06 03:53:57;;;;;;;19.27;13.13;;;1.80;86.60;;;;;;5054652;28;20171;-55
2022/03/06 03:56:23;;;;;;;19.03;13.27;;;1.80;86.30;;;;;;5053871;28;20667;-53
2022/03/06 03:58:49;;;;;;;18.10;12.93;;;1.80;86.30;;;;;;5054888;28;20179;-49
2022/03/06 04:01:17;;;;;;;18.47;13.07;;;1.80;86.60;;;;;;5054557;28;20251;-55
2022/03/06 04:03:42;;;;;;;20.30;14.03;;;1.80;86.40;;;;;;5054403;28;20406;-52
2022/03/06 04:06:08;;;;;;;17.47;12.53;;;1.80;86.40;;;;;;5053959;28;20495;-52
2022/03/06 04:08:33;;;;;;;17.57;12.73;;;1.80;86.50;;;;;;5054326;28;20262;-56
2022/03/06 04:11:00;;;;;;;19.50;12.30;;;1.80;86.40;;;;;;5054257;28;20627;-52
2022/03/06 04:13:26;;;;;;;18.07;13.03;;;1.80;86.50;;;;;;5054057;28;20183;-55
2022/03/06 04:15:52;;;;;;;18.60;13.03;;;1.80;86.90;;;;;;5053641;28;20457;-53
2022/03/06 04:18:18;;;;;;;17.20;13.03;;;1.80;86.90;;;;;;5054095;28;20516;-54
2022/03/06 04:20:44;;;;;;;19.20;12.63;;;1.80;87.10;;;;;;5054194;28;20232;-53
2022/03/06 04:23:10;;;;;;;17.53;12.47;;;1.80;87.30;;;;;;5054048;28;20182;-49
2022/03/06 04:25:35;;;;;;;18.70;12.97;;;1.70;87.10;;;;;;5053472;28;20622;-51
2022/03/06 04:28:01;;;;;;;18.17;12.13;;;1.70;87.00;;;;;;5053829;28;20205;-55
2022/03/06 04:30:26;;;;;;;19.23;13.00;;;1.70;86.80;;;;;;5052814;28;20175;-51
2022/03/06 04:32:52;;;;;;;19.67;13.67;;;1.80;87.30;;;;;;5053802;28;20182;-50
2022/03/06 04:35:18;;;;;;;18.57;13.33;;;1.80;86.40;;;;;;5052983;28;20676;-53
2022/03/06 04:37:44;;;;;;;18.00;12.43;;;1.70;86.30;;;;;;5053230;28;20502;-51
2022/03/06 04:40:10;;;;;;;17.30;12.90;;;1.70;86.00;;;;;;5053688;28;20548;-53
2022/03/06 04:42:36;;;;;;;18.80;12.53;;;1.70;85.60;;;;;;5053755;28;20179;-52
2022/03/06 04:45:02;;;;;;;19.30;13.23;;;1.70;85.60;;;;;;5053511;28;20961;-55
2022/03/06 04:47:28;;;;;;;18.27;12.83;;;1.70;85.30;;;;;;5053154;28;20255;-52
2022/03/06 04:49:54;;;;;;;17.27;12.27;;;1.70;85.40;;;;;;5052740;28;20948;-54
2022/03/06 04:52:20;;;;;;;17.60;12.83;;;1.70;85.40;;;;;;5053539;28;20171;-54
2022/03/06 04:54:46;;;;;;;17.63;12.70;;;1.60;85.10;;;;;;5053280;28;21167;-51
2022/03/06 04:57:11;;;;;;;16.53;12.40;;;1.60;85.20;;;;;;5052881;28;20203;-52
2022/03/06 04:59:37;;;;;;;16.90;12.20;;;1.60;85.40;;;;;;5053327;28;20167;-52
2022/03/06 05:02:03;;;;;;;17.03;12.20;;;1.60;85.90;;;;;;5053449;28;20201;-53
2022/03/06 05:04:28;;;;;;;17.10;12.20;;;1.60;85.90;;;;;;5052606;28;20221;-54
2022/03/06 05:06:54;;;;;;;15.30;11.33;;;1.60;85.90;;;;;;5052731;28;20663;-51
2022/03/06 05:09:20;;;;;;;18.10;11.63;;;1.50;86.20;;;;;;5053112;28;20250;-51
2022/03/06 05:11:46;;;;;;;18.53;12.77;;;1.60;85.90;;;;;;5053173;28;20178;-51
2022/03/06 05:14:11;;;;;;;18.57;12.90;;;1.50;86.00;;;;;;5052925;28;20406;-49
2022/03/06 05:16:37;;;;;;;17.43;12.50;;;1.50;85.90;;;;;;5052048;28;20214;-52
2022/03/06 05:19:02;;;;;;;18.37;12.30;;;1.40;86.00;;;;;;5052774;28;20640;-49
2022/03/06 05:21:28;;;;;;;17.77;12.13;;;1.40;86.10;;;;;;5051283;28;20167;-55
2022/03/06 05:23:54;;;;;;;16.50;11.87;;;1.40;86.10;;;;;;5052345;28;20201;-51
2022/03/06 05:26:19;;;;;;;17.10;12.13;;;1.30;86.10;;;;;;5052177;28;20671;-51
2022/03/06 05:28:45;;;;;;;17.47;12.53;;;1.40;86.10;;;;;;5052851;28;20186;-51
2022/03/06 05:31:10;;;;;;;18.87;12.13;;;1.40;86.20;;;;;;5052777;28;20544;-54
2022/03/06 05:33:36;;;;;;;18.47;12.17;;;1.30;86.50;;;;;;5052719;28;20175;-51
2022/03/06 05:36:03;;;;;;;16.57;11.37;;;1.20;86.60;;;;;;5052009;28;20191;-54
2022/03/06 05:38:29;;;;;;;18.83;12.23;;;1.20;86.80;;;;;;5052656;28;20888;-55
2022/03/06 05:40:55;;;;;;;18.30;12.13;;;1.20;87.10;;;;;;5052228;28;20416;-51
2022/03/06 05:43:20;;;;;;;18.00;11.83;;;1.10;86.90;;;;;;5051986;28;20167;-51
2022/03/06 05:45:50;;;;;;;16.40;11.40;;;1.10;86.90;;;;;;5051446;28;20191;-55
2022/03/06 05:48:21;;;;;;;17.00;11.70;;;1.20;87.20;;;;;;5052535;28;20794;-53
2022/03/06 05:50:48;;;;;;;17.50;11.60;;;1.20;87.00;;;;;;5052327;28;20416;-51
2022/03/06 05:53:14;;;;;;;16.17;11.47;;;1.20;86.60;;;;;;5052434;28;20414;-53
2022/03/06 05:55:39;;;;;;;14.93;10.67;;;2.80;87.50;;;;;;5051252;28;20476;-52
2022/03/06 05:58:05;;;;;;;16.43;11.10;;;1.20;85.60;;;;;;5051907;28;20457;-50
2022/03/06 06:00:31;;;;;;;14.83;11.20;;;1.30;86.10;;;;;;5052166;28;20641;-55
2022/03/06 06:02:56;;;;;;;16.97;11.77;;;1.20;86.00;;;;;;5052275;28;20171;-55
2022/03/06 06:05:23;;;;;;;15.83;10.63;;;1.20;86.30;;;;;;5052673;28;20221;-53
2022/03/06 06:07:49;;;;;;;16.90;11.83;;;1.20;86.20;;;;;;5053906;28;20179;-49
2022/03/06 06:10:15;;;;;;;16.50;11.40;;;1.20;86.80;;;;;;5054437;28;20690;-51
2022/03/06 06:12:40;;;;;;;15.93;11.40;;;1.10;86.50;;;;;;5055510;28;20564;-51
2022/03/06 06:15:08;;;;;;;15.80;10.73;;;1.20;86.50;;;;;;5052178;28;20246;-51
2022/03/06 06:17:33;;;;;;;16.50;10.93;;;1.10;86.80;;;;;;5051493;28;20203;-52
2022/03/06 06:20:00;;;;;;;16.03;10.97;;;1.10;86.90;;;;;;5051941;28;20414;-52
2022/03/06 06:22:26;;;;;;;15.73;11.10;;;1.10;86.60;;;;;;5051950;28;20164;-53
2022/03/06 06:24:51;;;;;;;17.47;11.50;;;1.10;86.30;;;;;;5051802;28;20418;-51
2022/03/06 06:27:17;;;;;;;17.03;11.90;;;1.20;86.50;;;;;;5051438;28;20412;-53
2022/03/06 06:29:43;;;;;;;16.80;11.70;;;1.20;85.70;;;;;;5051888;28;20272;-52
2022/03/06 06:32:08;;;;;;;15.70;11.37;;;1.20;85.70;;;;;;5051974;28;20595;-52
2022/03/06 06:34:34;;;;;;;17.17;11.80;;;1.30;85.90;;;;;;5052607;28;20278;-54
2022/03/06 06:37:00;;;;;;;17.53;10.67;;;1.40;85.60;;;;;;5052188;28;20206;-53
2022/03/06 06:39:25;;;;;;;17.73;11.00;;;1.40;85.40;;;;;;5051575;28;20559;-55
2022/03/06 06:41:51;;;;;;;15.47;10.87;;;1.40;85.00;;;;;;5051716;28;20175;-54
2022/03/06 06:44:17;;;;;;;16.10;10.70;;;1.50;85.20;;;;;;5051594;28;20190;-52
2022/03/06 06:46:43;;;;;;;16.83;10.57;;;1.60;85.10;;;;;;5051286;28;20174;-52
2022/03/06 06:49:10;;;;;;;14.87;10.80;;;1.70;84.60;;;;;;5051499;28;20413;-53
2022/03/06 06:51:36;;;;;;;16.97;10.90;;;1.80;84.60;;;;;;5051673;28;20224;-54
2022/03/06 06:54:02;;;;;;;15.03;10.90;;;1.90;84.50;;;;;;5055163;28;20504;-53
2022/03/06 06:56:27;;;;;;;16.17;11.20;;;2.20;85.00;;;;;;5055102;28;20252;-53
2022/03/06 06:58:53;;;;;;;17.27;11.03;;;2.20;84.90;;;;;;5054302;28;20171;-54
2022/03/06 07:01:19;;;;;;;16.10;11.00;;;2.30;84.70;;;;;;5055594;28;20167;-56
2022/03/06 07:03:44;;;;;;;13.60;9.50;;;2.40;83.70;;;;;;5054215;28;20179;-54
2022/03/06 07:06:10;;;;;;;15.40;10.70;;;2.60;83.50;;;;;;5055112;28;20191;-52
2022/03/06 07:08:36;;;;;;;16.23;11.03;;;2.70;83.00;;;;;;5055608;28;20225;-52
2022/03/06 07:11:02;;;;;;;14.50;10.23;;;2.80;83.20;;;;;;5055406;28;20405;-51
2022/03/06 07:13:27;;;;;;;15.97;9.83;;;3.00;83.00;;;;;;5055299;28;20207;-53
2022/03/06 07:15:53;;;;;;;14.33;10.47;;;3.10;82.40;;;;;;5054683;28;20217;-52
2022/03/06 07:18:18;;;;;;;14.67;10.83;;;3.20;82.30;;;;;;5055131;28;20210;-52
2022/03/06 07:20:44;;;;;;;15.10;11.20;;;3.40;81.60;;;;;;5054406;28;20175;-55
2022/03/06 07:23:10;;;;;;;13.87;10.07;;;3.60;80.70;;;;;;5055233;28;20198;-54
2022/03/06 07:25:35;;;;;;;14.70;10.27;;;3.70;79.50;;;;;;5053867;28;20966;-55
2022/03/06 07:28:01;;;;;;;14.20;10.30;;;3.80;79.10;;;;;;5054987;28;20206;-53
2022/03/06 07:30:27;;;;;;;13.57;10.27;;;3.90;78.60;;;;;;5054980;28;20237;-56
2022/03/06 07:32:53;;;;;;;14.00;10.20;;;4.00;76.90;;;;;;5054919;28;20175;-55
2022/03/06 07:35:20;;;;;;;14.00;9.77;;;4.10;76.70;;;;;;5054771;28;20198;-53
2022/03/06 07:37:46;;;;;;;14.13;10.77;;;4.20;75.90;;;;;;5054548;28;20211;-54
2022/03/06 07:40:18;;;;;;;14.00;10.33;;;4.40;73.90;;;;;;5054878;28;20167;-56
2022/03/06 07:42:44;;;;;;;11.90;9.40;;;4.50;73.80;;;;;;5054783;28;20183;-51
2022/03/06 07:45:10;;;;;;;13.23;9.47;;;4.60;73.60;;;;;;5054698;28;20213;-54
2022/03/06 07:47:36;;;;;;;13.37;10.33;;;4.60;71.40;;;;;;5054313;28;20176;-52
2022/03/06 07:50:02;;;;;;;13.87;10.43;;;4.80;72.20;;;;;;5054793;28;20178;-54
2022/03/06 07:52:28;;;;;;;13.20;10.77;;;4.80;74.50;;;;;;5054674;28;20624;-51
2022/03/06 07:54:53;;;;;;;13.43;10.40;;;4.80;74.50;;;;;;5054496;28;20283;-55
2022/03/06 07:57:19;;;;;;;14.37;10.70;;;4.70;75.40;;;;;;5053871;28;20294;-53
2022/03/06 07:59:44;;;;;;;15.07;10.73;;;4.70;76.30;;;;;;5054546;28;20214;-52
2022/03/06 08:02:10;;;;;;;13.87;10.37;;;4.70;74.30;;;;;;5054357;28;20163;-55
2022/03/06 08:04:35;;;;;;;14.70;11.37;;;4.90;73.50;;;;;;5054146;28;20187;-52
2022/03/06 08:07:01;;;;;;;13.40;9.50;;;5.00;73.20;;;;;;5053332;28;20202;-55
2022/03/06 08:09:27;;;;;;;12.60;9.57;;;5.10;72.70;;;;;;5053483;28;20632;-56
2022/03/06 08:11:53;;;;;;;13.37;9.67;;;5.30;72.10;;;;;;5053993;28;20175;-52
2022/03/06 08:14:18;;;;;;;11.30;8.57;;;5.50;69.00;;;;;;5054094;28;20179;-52
2022/03/06 08:16:44;;;;;;;12.40;8.73;;;5.70;68.40;;;;;;5052578;28;20207;-53
2022/03/06 08:19:09;;;;;;;11.97;8.73;;;5.90;64.30;;;;;;5053498;28;20671;-52
2022/03/06 08:21:35;;;;;;;12.90;9.10;;;6.10;62.10;;;;;;5054449;28;20174;-53
2022/03/06 08:24:01;;;;;;;12.00;8.67;;;6.30;61.80;;;;;;5054469;28;20172;-50
2022/03/06 08:26:27;;;;;;;10.73;8.00;;;6.50;62.50;;;;;;5053995;28;20252;-58
2022/03/06 08:28:53;;;;;;;10.93;8.50;;;6.70;61.10;;;;;;5054368;28;20179;-50
2022/03/06 08:31:19;;;;;;;12.57;10.33;;;6.80;59.70;;;;;;5053883;28;20175;-55
2022/03/06 08:33:45;;;;;;;12.70;10.00;;;6.90;61.60;;;;;;5053757;28;20270;-54
2022/03/06 08:36:11;;;;;;;12.60;9.57;;;6.80;61.70;;;;;;5053014;28;20277;-51
2022/03/06 08:38:37;;;;;;;11.27;8.57;;;6.90;62.60;;;;;;5053337;28;20175;-53
2022/03/06 08:41:02;;;;;;;10.07;8.33;;;7.20;59.50;;;;;;5053718;28;20263;-56
2022/03/06 08:43:28;;;;;;;11.80;9.23;;;7.40;59.10;;;;;;5053485;28;20187;-54
2022/03/06 08:45:54;;;;;;;10.93;8.93;;;7.50;57.80;;;;;;5052839;28;20195;-54
2022/03/06 08:48:21;;;;;;;11.07;8.17;;;7.80;58.60;;;;;;5051771;28;20202;-54
2022/03/06 08:50:49;;;;;;;10.93;8.43;;;8.20;59.00;;;;;;5051810;28;20163;-56
2022/03/06 08:53:15;;;;;;;11.70;9.03;;;8.70;58.50;;;;;;5053248;28;20171;-52
2022/03/06 08:55:41;;;;;;;10.73;8.77;;;9.30;56.80;;;;;;5053010;28;20191;-55
2022/03/06 08:58:06;;;;;;;9.87;8.43;;;9.70;55.30;;;;;;5052015;28;20297;-54
2022/03/06 09:00:32;;;;;;;9.73;7.97;;;10.00;54.50;;;;;;5053018;28;20179;-54
2022/03/06 09:02:57;;;;;;;10.87;8.90;;;10.30;50.50;;;;;;5052727;28;20280;-53
2022/03/06 09:05:23;;;;;;;10.53;8.90;;;10.30;49.80;;;;;;5053566;28;20194;-53
2022/03/06 09:07:48;;;;;;;10.30;8.20;;;10.60;50.10;;;;;;5052954;28;20605;-51
2022/03/06 09:10:14;;;;;;;9.77;8.37;;;10.60;47.70;;;;;;5053763;28;20575;-53
2022/03/06 09:12:39;;;;;;;9.60;8.20;;;10.90;47.90;;;;;;5052102;28;20185;-53
2022/03/06 09:15:07;;;;;;;10.13;8.33;;;11.80;47.40;;;;;;5051633;28;20241;-49
2022/03/06 09:17:32;;;;;;;9.30;8.20;;;12.70;46.20;;;;;;5052031;28;20194;-53
2022/03/06 09:19:58;;;;;;;8.80;7.80;;;13.60;42.60;;;;;;5051556;28;20544;-49
2022/03/06 09:22:23;;;;;;;10.03;7.93;;;14.10;39.90;;;;;;5053214;28;20181;-54
2022/03/06 09:24:49;;;;;;;8.93;8.03;;;14.40;40.40;;;;;;5052877;28;20188;-49
2022/03/06 09:27:14;;;;;;;9.57;7.90;;;15.10;39.20;;;;;;5052354;28;20183;-51
2022/03/06 09:29:40;;;;;;;8.60;7.67;;;16.20;36.70;;;;;;5052843;28;20171;-53
2022/03/06 09:32:07;;;;;;;9.27;7.97;;;17.10;36.70;;;;;;5052766;28;20177;-55
2022/03/06 09:34:32;;;;;;;9.23;8.27;;;18.50;35.90;;;;;;5052821;28;20660;-52
2022/03/06 09:36:58;;;;;;;10.03;9.03;;;18.90;31.70;;;;;;5052378;28;20209;-51
2022/03/06 09:39:24;;;;;;;8.18;7.38;;;19.10;30.90;;;;;;5052818;28;20171;-51
2022/03/06 09:41:54;;;;;;;8.30;7.40;;;20.30;31.50;;;;;;5052627;28;20181;-53
2022/03/06 09:44:22;;;;;;;8.02;7.22;;;22.30;29.00;;;;;;5053033;28;20167;-55
2022/03/06 09:46:48;;;;;;;7.93;7.13;;;23.40;27.90;;;;;;5051276;28;20585;-53
2022/03/06 09:49:14;;;;;;;8.27;7.47;;;24.40;27.20;;;;;;5053279;28;20552;-54
2022/03/06 09:51:41;;;;;;;8.02;7.22;;;25.90;25.60;;;;;;5053099;28;20175;-52
2022/03/06 09:54:09;;;;;;;8.63;7.72;;;26.90;24.80;;;;;;5053263;28;20186;-55
2022/03/06 09:56:35;;;;;;;8.13;7.32;;;27.80;23.80;;;;;;5051216;28;20233;-52
2022/03/06 09:59:01;;;;;;;7.32;6.47;;;28.30;23.90;;;;;;5052892;28;20171;-52
2022/03/06 10:01:26;;;;;;;8.32;7.30;;;28.90;23.80;;;;;;5053330;28;20539;-52
2022/03/06 10:03:52;;;;;;;7.93;7.22;;;29.90;21.80;;;;;;5053490;28;20168;-49
2022/03/06 10:06:17;;;;;;;7.60;6.90;;;29.30;21.40;;;;;;5052332;28;20274;-54
2022/03/06 10:08:43;;;;;;;7.88;7.13;;;26.50;22.30;;;;;;5052492;28;20217;-52
2022/03/06 10:11:10;;;;;;;7.82;7.03;;;24.30;23.50;;;;;;5052368;28;20178;-56
2022/03/06 10:13:39;;;;;;;8.07;7.28;;;22.90;24.50;;;;;;5051480;28;20180;-58
2022/03/06 10:16:13;;;;;;;8.10;7.25;;;21.60;25.30;;;;;;5052083;28;20214;-56
2022/03/06 10:18:50;;;;;;;8.63;7.23;;;20.20;25.70;;;;;;5052259;28;20197;-52
2022/03/06 10:21:26;;;;;;;8.50;7.60;;;19.00;26.80;;;;;;5052654;28;20178;-53
2022/03/06 10:23:57;;;;;;;8.17;7.33;;;18.10;27.20;;;;;;5052293;28;20889;-52
2022/03/06 10:26:27;;;;;;;7.97;7.17;;;17.30;28.20;;;;;;5051544;28;20187;-54
2022/03/06 10:29:05;;;;;;;8.80;7.90;;;16.60;28.60;;;;;;5051809;28;20191;-54
2022/03/06 10:31:33;;;;;;;8.07;7.17;;;16.20;29.30;;;;;;5052097;28;20159;-53
2022/03/06 10:34:08;;;;;;;7.63;6.80;;;15.70;29.50;;;;;;5052594;28;20167;-52
2022/03/06 10:36:45;;;;;;;9.20;7.40;;;15.10;29.90;;;;;;5052108;28;20198;-55
2022/03/06 10:39:22;;;;;;;8.33;7.03;;;14.40;30.00;;;;;;5052630;28;20168;-51
2022/03/06 10:41:56;;;;;;;8.87;7.60;;;13.50;32.10;;;;;;5053394;28;20179;-55
2022/03/06 10:44:41;;;;;;;8.07;7.27;;;13.00;33.10;;;;;;5052796;28;20179;-52
2022/03/06 10:47:06;;;;;;;10.00;8.07;;;12.70;33.10;;;;;;5052189;28;20175;-54
2022/03/06 10:49:32;;;;;;;10.40;8.27;;;12.40;33.40;;;;;;5052538;28;20179;-53
2022/03/06 10:52:16;;;;;;;11.10;8.37;;;12.00;33.50;;;;;;5052629;28;20175;-56
2022/03/06 10:54:56;;;;;;;7.83;6.90;;;11.80;34.60;;;;;;5052746;28;20596;-52
2022/03/06 10:57:23;;;;;;;8.53;7.20;;;11.70;34.60;;;;;;5052055;28;20790;-52
2022/03/06 10:59:50;;;;;;;10.37;7.47;;;12.70;36.50;;;;;;5052615;28;20720;-54
2022/03/06 11:02:16;;;;;;;8.73;7.50;;;11.50;35.20;;;;;;5052627;28;20171;-52
2022/03/06 11:04:46;;;;;;;9.30;7.77;;;11.40;35.30;;;;;;5052569;28;20195;-53
2022/03/06 11:07:12;;;;;;;9.90;7.90;;;11.30;35.60;;;;;;5051931;28;20167;-52
2022/03/06 11:09:38;;;;;;;8.33;7.10;;;11.20;35.70;;;;;;5052389;28;20175;-53
2022/03/06 11:12:05;;;;;;;9.27;7.50;;;11.30;34.70;;;;;;5052484;28;20190;-52
2022/03/06 11:14:32;;;;;;;10.27;7.60;;;11.30;34.30;;;;;;5052325;28;20207;-53
2022/03/06 11:16:58;;;;;;;8.60;7.57;;;11.00;35.80;;;;;;5051976;28;20206;-52
2022/03/06 11:19:24;;;;;;;9.50;7.90;;;10.90;35.70;;;;;;5052276;28;20175;-52
2022/03/06 11:22:00;;;;;;;8.13;7.23;;;10.70;36.50;;;;;;5052167;28;20535;-55
2022/03/06 11:24:28;;;;;;;8.57;7.20;;;10.80;36.50;;;;;;5052008;28;20627;-52
2022/03/06 11:27:08;;;;;;;10.03;7.50;;;11.00;37.30;;;;;;5051615;28;20582;-52
2022/03/06 11:29:55;;;;;;;10.60;8.20;;;11.10;36.10;;;;;;5051911;28;20678;-52
2022/03/06 11:32:26;;;;;;;10.30;8.43;;;11.10;36.70;;;;;;5051947;28;20182;-52
2022/03/06 11:34:58;;;;;;;11.07;9.60;;;11.00;37.90;;;;;;5051920;28;20607;-53
2022/03/06 11:37:27;;;;;;;10.67;9.57;;;10.80;38.20;;;;;;5051577;28;20293;-52
2022/03/06 11:39:53;;;;;;;12.30;9.43;;;10.70;39.20;;;;;;5055202;28;20179;-55
2022/03/06 11:42:47;;;;;;;14.17;10.03;;;10.70;39.00;;;;;;5055425;28;20536;-52
2022/03/06 11:45:53;;;;;;;11.57;9.67;;;10.60;39.20;;;;;;5054983;28;20233;-52
2022/03/06 11:48:23;;;;;;;11.23;9.47;;;10.40;40.20;;;;;;5054446;28;20194;-54
2022/03/06 11:51:18;;;;;;;12.13;9.47;;;8.30;40.20;;;;;;5055480;28;20175;-55
2022/03/06 11:54:00;;;;;;;12.13;10.60;;;10.10;40.50;;;;;;5056105;28;20181;-53
2022/03/06 11:56:35;;;;;;;10.97;9.47;;;9.90;42.20;;;;;;5058207;28;20205;-54
2022/03/06 11:59:16;;;;;;;13.80;11.53;;;9.80;42.10;;;;;;5058347;28;20167;-52
2022/03/06 12:01:47;;;;;;;12.33;10.40;;;9.60;42.60;;;;;;5058207;28;20170;-51
2022/03/06 12:04:27;;;;;;;13.80;10.93;;;9.60;42.60;;;;;;5057398;28;20652;-55
2022/03/06 12:06:59;;;;;;;193.30;105.67;;;9.60;43.20;;;;;;5056451;28;20186;-53
2022/03/06 12:09:29;;;;;;;53.63;37.33;;;9.70;43.00;;;;;;5055456;28;20179;-53
2022/03/06 12:11:58;;;;;;;89.60;59.77;;;9.60;42.90;;;;;;5055286;28;20171;-52
2022/03/06 12:14:31;;;;;;;14.53;11.57;;;9.50;42.90;;;;;;5054894;28;20198;-52
2022/03/06 12:17:03;;;;;;;42.27;30.20;;;9.50;42.60;;;;;;5055088;28;20197;-54
2022/03/06 12:19:37;;;;;;;30.73;24.77;;;9.60;43.10;;;;;;5055496;28;20217;-51
2022/03/06 12:22:29;;;;;;;23.83;19.63;;;9.40;42.80;;;;;;5055213;28;20175;-52
2022/03/06 12:25:06;;;;;;;25.90;20.80;;;9.50;43.50;;;;;;5054998;28;20369;-54
2022/03/06 12:27:33;;;;;;;13.67;11.40;;;9.50;43.20;;;;;;5055180;28;20578;-51
2022/03/06 12:30:09;;;;;;;10.80;9.57;;;9.40;42.90;;;;;;5048540;28;20190;-53
2022/03/06 12:32:40;;;;;;;11.13;9.93;;;9.40;42.30;;;;;;5043690;28;20261;-50
2022/03/06 12:35:14;;;;;;;11.53;10.00;;;9.20;42.80;;;;;;5043273;28;20199;-51
2022/03/06 12:37:52;;;;;;;12.10;9.80;;;9.20;43.20;;;;;;5042547;28;20219;-51
2022/03/06 12:40:20;;;;;;;11.30;9.77;;;9.20;42.80;;;;;;5042915;28;20258;-51